createdAt,value
2018-09-17T00:01:14.335Z,3.80
2018-09-17T00:03:44.313Z,4.30
2018-09-17T00:06:14.307Z,3.83
2018-09-17T00:08:44.854Z,4.17
2018-09-17T00:11:14.826Z,4.10
2018-09-17T00:13:44.793Z,4.30
2018-09-17T00:16:14.546Z,5.03
2018-09-17T00:18:45.136Z,4.35
2018-09-17T00:21:15.486Z,4.30
2018-09-17T00:23:45.809Z,4.37
2018-09-17T00:26:16.034Z,5.50
2018-09-17T00:28:45.790Z,4.00
2018-09-17T00:31:15.766Z,4.50
2018-09-17T00:33:46.309Z,3.87
2018-09-17T00:36:16.058Z,4.20
2018-09-17T00:38:46.086Z,4.20
2018-09-17T00:41:16.625Z,4.35
2018-09-17T00:43:47.317Z,4.70
2018-09-17T00:46:17.285Z,4.00
2018-09-17T00:48:47.515Z,4.43
2018-09-17T00:51:17.802Z,4.67
2018-09-17T00:53:47.894Z,4.30
2018-09-17T00:56:18.436Z,4.20
2018-09-17T00:58:48.406Z,3.90
2018-09-17T01:01:18.383Z,4.12
2018-09-17T01:03:48.570Z,4.60
2018-09-17T01:06:18.543Z,4.57
2018-09-17T01:08:49.766Z,4.50
2018-09-17T01:11:20.016Z,4.13
2018-09-17T01:13:50.470Z,4.20
2018-09-17T01:16:20.242Z,4.72
2018-09-17T01:18:50.233Z,4.43
2018-09-17T01:21:20.262Z,4.90
2018-09-17T01:23:50.461Z,4.07
2018-09-17T01:26:21.591Z,4.30
2018-09-17T01:28:51.577Z,4.27
2018-09-17T01:31:22.487Z,4.33
2018-09-17T01:33:52.274Z,5.00
2018-09-17T01:36:22.246Z,4.92
2018-09-17T01:38:52.035Z,4.57
2018-09-17T01:41:21.796Z,4.28
2018-09-17T01:43:52.327Z,4.42
2018-09-17T01:46:22.574Z,4.40
2018-09-17T01:48:52.934Z,4.07
2018-09-17T01:51:22.931Z,4.50
2018-09-17T01:53:52.921Z,4.78
2018-09-17T01:56:23.199Z,4.40
2018-09-17T01:58:53.029Z,4.60
2018-09-17T02:01:23.012Z,4.40
2018-09-17T02:03:52.794Z,4.67
2018-09-17T02:06:22.565Z,4.70
2018-09-17T02:08:52.389Z,4.33
2018-09-17T02:11:22.622Z,4.23
2018-09-17T02:13:52.650Z,4.30
2018-09-17T02:16:22.859Z,4.20
2018-09-17T02:18:52.842Z,4.50
2018-09-17T02:21:22.847Z,4.40
2018-09-17T02:23:52.903Z,4.40
2018-09-17T02:26:22.881Z,4.30
2018-09-17T02:28:53.218Z,4.60
2018-09-17T02:31:23.777Z,4.67
2018-09-17T02:33:53.778Z,4.37
2018-09-17T02:36:24.322Z,4.55
2018-09-17T02:38:55.083Z,4.53
2018-09-17T02:41:25.446Z,4.25
2018-09-17T02:43:55.697Z,4.50
2018-09-17T02:46:26.030Z,4.60
2018-09-17T02:48:56.019Z,4.43
2018-09-17T02:51:26.098Z,4.20
2018-09-17T02:53:56.070Z,4.53
2018-09-17T02:56:25.859Z,4.40
2018-09-17T02:58:55.821Z,4.73
2018-09-17T03:01:25.579Z,4.97
2018-09-17T03:03:55.566Z,4.20
2018-09-17T03:06:25.318Z,3.93
2018-09-17T03:08:55.577Z,4.30
2018-09-17T03:11:25.320Z,4.47
2018-09-17T03:13:55.322Z,4.23
2018-09-17T03:16:25.657Z,4.10
2018-09-17T03:18:56.762Z,4.43
2018-09-17T03:21:27.029Z,4.60
2018-09-17T03:23:57.194Z,4.17
2018-09-17T03:26:27.429Z,4.33
2018-09-17T03:28:57.434Z,4.30
2018-09-17T03:31:27.451Z,4.28
2018-09-17T03:33:57.466Z,4.27
2018-09-17T03:36:27.435Z,5.37
2018-09-17T03:38:57.725Z,4.80
2018-09-17T09:06:59.566Z,8.88
2018-09-17T09:09:29.903Z,8.90
2018-09-17T09:12:04.578Z,8.50
2018-09-17T09:14:39.745Z,8.70
2018-09-17T09:17:11.318Z,9.30
2018-09-17T11:08:15.435Z,3.75
